Time;durP1;ratioP1;P1;durP2;ratioP2;P2;SDS_P1;SDS_P2;PMS_P1;PMS_P2;Temp;Humidity;BMP_temperature;BMP_pressure;BME280_temperature;BME280_humidity;BME280_pressure;Samples;Min_cycle;Max_cycle;Signal;HPM_P1;HPM_P2
2021/12/05 00:24:14;;;;;;;15.73;11.15;;;;;;;;;;4970996;28;20046;-81
2021/12/05 00:26:46;;;;;;;18.52;10.95;;;;;;;;;;4975298;28;20060;-81
2021/12/05 00:29:28;;;;;;;21.70;12.30;;;;;;;;;;4976127;28;20057;-81
2021/12/05 00:47:57;;;;;;;25.13;13.93;;;;;;;;;;4974322;28;20068;-80
2021/12/05 01:14:28;;;;;;;33.10;15.18;;;;;;;;;;4885845;29;20044;-81
2021/12/05 01:16:56;;;;;;;22.83;12.55;;;;;;;;;;4870041;29;20044;-80
2021/12/05 01:19:26;;;;;;;21.40;12.45;;;;;;;;;;4885737;29;20418;-80
2021/12/05 01:21:55;;;;;;;26.55;14.02;;;;;;;;;;4884751;29;20067;-81
2021/12/05 01:24:36;;;;;;;20.92;12.68;;;;;;;;;;4875217;29;20131;-80
2021/12/05 01:29:52;;;;;;;32.80;15.65;;;;;;;;;;4887920;29;20055;-80
2021/12/05 01:32:35;;;;;;;37.55;15.65;;;;;;;;;;4883023;29;20048;-81
2021/12/05 01:38:11;;;;;;;40.85;17.20;;;;;;;;;;4880316;29;20052;-80
2021/12/05 01:54:53;;;;;;;11.32;8.88;;;;;;;;;;4974063;28;20652;-80
2021/12/05 02:11:11;;;;;;;12.90;9.65;;;;;;;;;;4997803;28;20069;-80
2021/12/05 05:40:22;;;;;;;6.90;3.67;;;;;;;;;;4991159;28;20090;-76
2021/12/05 05:45:57;;;;;;;5.35;2.42;;;;;;;;;;4979039;28;20491;-76
2021/12/05 05:48:35;;;;;;;7.57;4.35;;;;;;;;;;4978578;28;20517;-76
2021/12/05 05:51:04;;;;;;;11.00;3.97;;;;;;;;;;4982097;28;20174;-75
2021/12/05 05:53:32;;;;;;;8.35;3.47;;;;;;;;;;4959988;28;20043;-76
2021/12/05 05:56:01;;;;;;;3.67;3.20;;;;;;;;;;4956257;28;20138;-75
2021/12/05 05:59:06;;;;;;;5.35;3.03;;;;;;;;;;4922023;29;20097;-76
2021/12/05 06:04:05;;;;;;;6.78;2.70;;;;;;;;;;4952692;28;20529;-76
2021/12/05 06:06:33;;;;;;;5.82;2.92;;;;;;;;;;4959152;28;20085;-76
2021/12/05 06:09:01;;;;;;;7.95;4.22;;;;;;;;;;4934926;29;20066;-76
2021/12/05 06:11:29;;;;;;;4.55;3.45;;;;;;;;;;4936897;28;20374;-76
2021/12/05 06:13:56;;;;;;;7.47;3.53;;;;;;;;;;4955876;28;20043;-75
2021/12/05 06:16:23;;;;;;;8.77;4.32;;;;;;;;;;4933909;29;20043;-76
2021/12/05 06:18:51;;;;;;;4.32;2.78;;;;;;;;;;4933263;29;20428;-76
2021/12/05 06:21:18;;;;;;;7.72;3.05;;;;;;;;;;4940141;28;20630;-75
2021/12/05 06:23:46;;;;;;;7.75;4.22;;;;;;;;;;4954732;28;20053;-75
2021/12/05 06:26:20;;;;;;;6.63;4.30;;;;;;;;;;4975770;28;20410;-75
2021/12/05 06:40:20;;;;;;;8.63;4.93;;;;;;;;;;4990766;28;20046;-75
2021/12/05 06:43:03;;;;;;;7.95;5.63;;;;;;;;;;4971335;28;20120;-76
2021/12/05 06:48:17;;;;;;;16.50;12.23;;;;;;;;;;4975575;28;20042;-76
2021/12/05 06:50:45;;;;;;;8.98;8.00;;;;;;;;;;4974929;28;20038;-76
2021/12/05 06:53:12;;;;;;;11.25;6.22;;;;;;;;;;4975936;28;20097;-76
2021/12/05 06:55:39;;;;;;;11.20;6.40;;;;;;;;;;4974700;28;20132;-75
2021/12/05 06:58:11;;;;;;;7.80;5.30;;;;;;;;;;4972199;28;20533;-76
2021/12/05 07:00:38;;;;;;;11.25;7.15;;;;;;;;;;4989259;28;20142;-76
2021/12/05 07:03:07;;;;;;;7.28;5.85;;;;;;;;;;4955775;28;20050;-75
2021/12/05 07:05:44;;;;;;;4.85;4.35;;;;;;;;;;4979338;28;20045;-76
2021/12/05 07:08:14;;;;;;;6.40;4.35;;;;;;;;;;4967813;28;20088;-76
2021/12/05 07:11:32;;;;;;;5.07;4.05;;;;;;;;;;4989685;28;20125;-76
2021/12/05 07:17:04;;;;;;;11.15;6.13;;;;;;;;;;4988594;28;20465;-75
2021/12/05 07:22:20;;;;;;;21.50;15.30;;;;;;;;;;4919734;29;20123;-75
2021/12/05 07:25:00;;;;;;;23.35;16.42;;;;;;;;;;4910135;29;20071;-76
2021/12/05 07:44:00;;;;;;;35.78;19.67;;;;;;;;;;4912856;29;20131;-75
2021/12/05 07:46:27;;;;;;;32.05;15.73;;;;;;;;;;4900863;29;20095;-76
2021/12/05 07:48:55;;;;;;;23.33;12.82;;;;;;;;;;4910252;29;20058;-75
2021/12/05 07:51:28;;;;;;;27.23;17.42;;;;;;;;;;4893612;29;20050;-75
2021/12/05 07:54:14;;;;;;;37.80;20.13;;;;;;;;;;4911697;29;20100;-76
2021/12/05 07:56:59;;;;;;;24.50;15.93;;;;;;;;;;4936542;28;20102;-76
2021/12/05 08:16:08;;;;;;;17.27;10.43;;;;;;;;;;4978578;28;20066;-76
2021/12/05 08:18:41;;;;;;;16.75;9.95;;;;;;;;;;4988430;28;20501;-76
2021/12/05 08:21:08;;;;;;;22.17;14.70;;;;;;;;;;4967330;28;20308;-76
2021/12/05 08:23:36;;;;;;;14.27;10.43;;;;;;;;;;4950296;28;20070;-76
2021/12/05 08:26:08;;;;;;;15.00;9.00;;;;;;;;;;4963052;28;20118;-76
2021/12/05 08:31:32;;;;;;;15.05;10.30;;;;;;;;;;4978666;28;20301;-76
2021/12/05 08:34:31;;;;;;;12.60;9.13;;;;;;;;;;4983937;28;20124;-76
2021/12/05 08:42:42;;;;;;;29.58;18.58;;;;;;;;;;4970724;28;20096;-76
2021/12/05 08:45:35;;;;;;;19.27;13.48;;;;;;;;;;4968761;28;20073;-76
2021/12/05 10:10:14;;;;;;;22.08;13.35;;;;;;;;;;4936297;28;20078;-83
2021/12/05 10:38:16;;;;;;;12.25;8.52;;;;;;;;;;4954210;28;20502;-84
2021/12/05 10:40:47;;;;;;;16.20;11.95;;;;;;;;;;4953643;28;20430;-84
2021/12/05 10:43:30;;;;;;;19.30;12.93;;;;;;;;;;4931143;29;20516;-84
2021/12/05 10:46:03;;;;;;;14.75;10.52;;;;;;;;;;4902145;29;20044;-86
2021/12/05 10:48:34;;;;;;;21.92;12.32;;;;;;;;;;4877987;29;20056;-85
2021/12/05 10:51:03;;;;;;;16.95;11.75;;;;;;;;;;4894001;29;20077;-85
2021/12/05 10:53:43;;;;;;;16.42;12.93;;;;;;;;;;4897159;29;20148;-85
2021/12/05 10:56:17;;;;;;;13.57;10.38;;;;;;;;;;4862463;29;20402;-86
2021/12/05 10:58:44;;;;;;;13.50;8.80;;;;;;;;;;4893993;29;20040;-83
2021/12/05 11:01:17;;;;;;;11.15;7.95;;;;;;;;;;4878727;29;20245;-84
2021/12/05 11:03:50;;;;;;;14.40;8.93;;;;;;;;;;4883193;29;20063;-84
2021/12/05 11:06:30;;;;;;;14.50;9.65;;;;;;;;;;4893577;29;20051;-83
2021/12/05 11:09:14;;;;;;;14.52;9.98;;;;;;;;;;4895788;29;20062;-85
2021/12/05 11:11:49;;;;;;;13.55;9.48;;;;;;;;;;4892740;29;20052;-87
2021/12/05 11:14:32;;;;;;;12.63;8.77;;;;;;;;;;4906382;29;20051;-87
2021/12/05 11:17:06;;;;;;;12.07;8.10;;;;;;;;;;4935454;29;20054;-88
2021/12/05 11:20:32;;;;;;;8.80;6.20;;;;;;;;;;4945137;28;20053;-87
2021/12/05 11:23:00;;;;;;;10.05;6.53;;;;;;;;;;4950232;28;20042;-87
2021/12/05 11:25:35;;;;;;;9.18;6.60;;;;;;;;;;4967647;28;20753;-86
2021/12/05 11:28:08;;;;;;;10.20;6.95;;;;;;;;;;4952160;28;20050;-87
2021/12/05 11:30:59;;;;;;;13.80;8.00;;;;;;;;;;4952226;28;20042;-86
2021/12/05 11:33:45;;;;;;;9.77;5.97;;;;;;;;;;4971957;28;20521;-86
2021/12/05 11:36:34;;;;;;;10.88;7.57;;;;;;;;;;4958122;28;20057;-87
2021/12/05 11:44:47;;;;;;;;;;;;;;;;;;;;;
2021/12/05 11:48:01;;;;;;;;;;;;;;;;;;;;;
2021/12/05 11:59:26;;;;;;;10.48;8.45;;;;;;;;;;4727744;30;20481;-86
2021/12/05 12:02:19;;;;;;;11.32;7.82;;;;;;;;;;4721271;30;20514;-86
2021/12/05 12:05:08;;;;;;;15.80;7.75;;;;;;;;;;4722123;30;20080;-86
2021/12/05 12:08:07;;;;;;;12.90;6.85;;;;;;;;;;4702731;30;20040;-86
2021/12/05 12:10:36;;;;;;;10.93;8.57;;;;;;;;;;4717296;30;20048;-83
2021/12/05 12:13:18;;;;;;;11.05;7.97;;;;;;;;;;4714402;30;20071;-87
2021/12/05 12:16:06;;;;;;;13.20;7.50;;;;;;;;;;4710136;30;20139;-85
2021/12/05 12:18:36;;;;;;;9.07;8.02;;;;;;;;;;4734603;30;20077;-85
2021/12/05 12:21:11;;;;;;;11.32;7.63;;;;;;;;;;4758213;29;20119;-85
2021/12/05 12:24:17;;;;;;;9.60;6.03;;;;;;;;;;4781040;29;20074;-85
2021/12/05 12:27:59;;;;;;;8.98;6.97;;;;;;;;;;4790393;29;20054;-84
2021/12/05 12:31:32;;;;;;;6.32;5.72;;;;;;;;;;4826860;28;20061;-85
2021/12/05 12:34:32;;;;;;;10.93;6.18;;;;;;;;;;4967736;23;20058;-78
2021/12/05 12:37:59;;;;;;;8.70;6.00;;;;;;;;;;4929083;29;20043;-79
2021/12/05 12:40:39;;;;;;;10.02;6.05;;;;;;;;;;4928478;29;20040;-79
2021/12/05 12:43:30;;;;;;;11.80;7.50;;;;;;;;;;4903141;29;20825;-80
2021/12/05 12:46:34;;;;;;;8.60;5.50;;;;;;;;;;4928519;29;20044;-80
2021/12/05 12:49:46;;;;;;;13.50;5.55;;;;;;;;;;4880649;29;20052;-79
2021/12/05 12:52:51;;;;;;;10.38;5.80;;;;;;;;;;4876523;29;20060;-79
2021/12/05 12:56:08;;;;;;;;;;;;;;;;;;;;;
2021/12/05 12:59:34;;;;;;;;;;;;;;;;;;;;;
2021/12/05 13:02:37;;;;;;;9.68;5.22;;;;;;;;;;4837534;29;20050;-78
2021/12/05 13:12:49;;;;;;;6.18;5.57;;;;;;;;;;4723253;30;20407;-79
2021/12/05 13:15:57;;;;;;;10.77;5.45;;;;;;;;;;4720874;30;20072;-79
2021/12/05 13:21:52;;;;;;;8.95;5.22;;;;;;;;;;4767936;30;20127;-80
2021/12/05 13:24:38;;;;;;;8.27;5.45;;;;;;;;;;5038534;28;20399;-74
2021/12/05 13:27:11;;;;;;;6.90;5.18;;;;;;;;;;5034984;28;20055;-75
2021/12/05 13:29:51;;;;;;;7.35;5.63;;;;;;;;;;5034509;28;20080;-75
2021/12/05 13:32:25;;;;;;;6.97;6.00;;;;;;;;;;5023210;28;20130;-73
2021/12/05 13:34:59;;;;;;;7.70;6.00;;;;;;;;;;5018769;28;20045;-75
2021/12/05 13:37:28;;;;;;;9.30;7.70;;;;;;;;;;5033852;28;20202;-75
2021/12/05 13:40:07;;;;;;;11.90;10.25;;;;;;;;;;5037002;28;20095;-75
2021/12/05 13:43:05;;;;;;;13.30;8.95;;;;;;;;;;5021770;28;20037;-75
2021/12/05 13:45:43;;;;;;;7.47;5.97;;;;;;;;;;5033520;28;20104;-74
2021/12/05 13:48:15;;;;;;;8.10;7.28;;;;;;;;;;5017992;28;20059;-75
2021/12/05 13:50:45;;;;;;;10.43;6.93;;;;;;;;;;5046071;28;20040;-75
2021/12/05 13:53:13;;;;;;;13.07;8.13;;;;;;;;;;5031542;28;20060;-75
2021/12/05 14:00:34;;;;;;;9.98;7.18;;;;;;;;;;4954675;28;20027;-76
2021/12/05 14:03:01;;;;;;;9.07;7.53;;;;;;;;;;4934293;28;20051;-75
2021/12/05 14:05:30;;;;;;;8.52;7.10;;;;;;;;;;4939221;28;20042;-75
2021/12/05 14:07:59;;;;;;;8.80;6.05;;;;;;;;;;4908757;28;20055;-75
2021/12/05 14:10:27;;;;;;;8.55;5.75;;;;;;;;;;4952440;28;20104;-74
2021/12/05 14:12:54;;;;;;;9.27;6.00;;;;;;;;;;4952989;28;20134;-74
2021/12/05 14:15:22;;;;;;;7.88;7.10;;;;;;;;;;4948192;28;20118;-75
2021/12/05 14:17:51;;;;;;;12.65;8.13;;;;;;;;;;4952529;28;20063;-75
2021/12/05 14:20:25;;;;;;;11.80;9.98;;;;;;;;;;4953510;28;20054;-75
2021/12/05 14:22:56;;;;;;;14.60;11.80;;;;;;;;;;4953499;28;20043;-75
2021/12/05 14:25:25;;;;;;;12.25;10.18;;;;;;;;;;4951184;28;20088;-75
2021/12/05 14:27:54;;;;;;;11.63;9.18;;;;;;;;;;4953763;28;20141;-75
2021/12/05 14:30:24;;;;;;;16.63;11.35;;;;;;;;;;4954855;28;20571;-75
2021/12/05 14:32:57;;;;;;;21.20;15.15;;;;;;;;;;4957747;28;20110;-75
2021/12/05 14:35:28;;;;;;;16.80;11.68;;;;;;;;;;5025148;28;20095;-74
2021/12/05 14:38:14;;;;;;;13.27;10.02;;;;;;;;;;5022675;28;20049;-76
2021/12/05 14:45:52;;;;;;;19.20;12.02;;;;;;;;;;4980753;28;20038;-75
2021/12/05 14:48:23;;;;;;;;;;;;;;;;;;4982941;28;20092;-75
2021/12/05 14:50:52;;;;;;;33.83;19.15;;;;;;;;;;4983591;28;19964;-75
2021/12/05 14:53:24;;;;;;;34.00;20.55;;;;;;;;;;4985237;28;20077;-75
2021/12/05 14:55:58;;;;;;;36.90;22.92;;;;;;;;;;4984054;28;20140;-77
2021/12/05 14:58:30;;;;;;;27.08;18.27;;;;;;;;;;4984622;28;20057;-76
2021/12/05 15:00:58;;;;;;;;;;;;;;;;;;4982045;28;20498;-76
2021/12/05 15:03:27;;;;;;;23.88;13.73;;;;;;;;;;4967469;28;20028;-75
2021/12/05 15:05:58;;;;;;;25.48;18.50;;;;;;;;;;4984241;28;20050;-76
2021/12/05 15:08:28;;;;;;;30.52;20.05;;;;;;;;;;4967859;28;20678;-75
2021/12/05 15:10:57;;;;;;;30.05;20.48;;;;;;;;;;4983911;28;20054;-75
2021/12/05 15:13:25;;;;;;;26.58;18.92;;;;;;;;;;4969715;28;20302;-75
2021/12/05 15:15:53;;;;;;;18.60;16.08;;;;;;;;;;4996843;28;20077;-74
2021/12/05 15:18:28;;;;;;;20.15;15.13;;;;;;;;;;5025295;28;20049;-74
2021/12/05 15:20:57;;;;;;;25.38;18.88;;;;;;;;;;5024989;28;20057;-74
2021/12/05 15:23:31;;;;;;;23.70;17.85;;;;;;;;;;5024443;28;20065;-75
2021/12/05 15:26:01;;;;;;;23.85;17.73;;;;;;;;;;5022773;28;20064;-75
2021/12/05 15:28:28;;;;;;;24.35;18.48;;;;;;;;;;5024680;28;20042;-75
2021/12/05 15:30:55;;;;;;;25.95;19.98;;;;;;;;;;5020167;28;20524;-75
2021/12/05 15:33:26;;;;;;;30.52;20.55;;;;;;;;;;5025427;28;20112;-75
2021/12/05 15:35:56;;;;;;;33.55;22.20;;;;;;;;;;5023145;28;20071;-75
2021/12/05 15:38:25;;;;;;;25.77;18.17;;;;;;;;;;5036280;28;20048;-75
2021/12/05 15:40:55;;;;;;;36.65;24.20;;;;;;;;;;5022672;28;20041;-77
2021/12/05 15:46:11;;;;;;;32.05;22.45;;;;;;;;;;4954324;28;20061;-75
2021/12/05 15:48:38;;;;;;;33.83;24.30;;;;;;;;;;4958055;28;20041;-76
2021/12/05 15:51:10;;;;;;;34.47;23.02;;;;;;;;;;4962407;28;20106;-75
2021/12/05 15:53:37;;;;;;;29.80;21.35;;;;;;;;;;4963874;28;20054;-76
2021/12/05 15:56:06;;;;;;;39.63;27.45;;;;;;;;;;4971988;28;20435;-75
2021/12/05 15:58:46;;;;;;;19.83;14.82;;;;;;;;;;4961539;28;20050;-75
2021/12/05 16:01:21;;;;;;;12.95;11.35;;;;;;;;;;4958726;28;20078;-76
2021/12/05 16:03:49;;;;;;;12.45;9.63;;;;;;;;;;4963533;28;20045;-77
2021/12/05 16:06:18;;;;;;;15.27;12.43;;;;;;;;;;4963893;28;20112;-75
2021/12/05 16:08:46;;;;;;;15.88;12.10;;;;;;;;;;4961979;28;20599;-75
2021/12/05 16:11:18;;;;;;;13.32;11.48;;;;;;;;;;4961573;28;20130;-76
2021/12/05 16:13:54;;;;;;;13.85;9.48;;;;;;;;;;4959899;28;20035;-76
2021/12/05 16:16:25;;;;;;;9.93;8.93;;;;;;;;;;4963505;28;20043;-76
2021/12/05 16:18:55;;;;;;;13.57;10.68;;;;;;;;;;4958136;28;20058;-76
2021/12/05 16:21:32;;;;;;;12.35;9.73;;;;;;;;;;4960737;28;20059;-75
2021/12/05 16:24:06;;;;;;;18.38;13.48;;;;;;;;;;4959588;28;20547;-75
2021/12/05 16:26:34;;;;;;;14.02;11.23;;;;;;;;;;4955476;28;20067;-75
2021/12/05 16:29:04;;;;;;;23.13;15.32;;;;;;;;;;4963025;28;20043;-75
2021/12/05 16:31:35;;;;;;;18.98;15.48;;;;;;;;;;4956303;28;20047;-76
2021/12/05 16:34:05;;;;;;;21.33;14.80;;;;;;;;;;4952936;28;20077;-76
2021/12/05 16:36:35;;;;;;;25.67;18.27;;;;;;;;;;4972811;28;20046;-76
2021/12/05 16:39:09;;;;;;;29.73;22.42;;;;;;;;;;4962415;28;20382;-76
2021/12/05 16:41:37;;;;;;;33.80;25.65;;;;;;;;;;4963267;28;20118;-77
2021/12/05 16:44:09;;;;;;;26.20;18.35;;;;;;;;;;4955160;28;20583;-76
2021/12/05 16:46:40;;;;;;;21.17;15.02;;;;;;;;;;4956829;28;20545;-75
2021/12/05 16:49:10;;;;;;;14.68;11.90;;;;;;;;;;4973706;28;20127;-75
2021/12/05 16:51:59;;;;;;;18.48;13.88;;;;;;;;;;4938438;28;20051;-77
2021/12/05 16:54:42;;;;;;;19.30;15.10;;;;;;;;;;4949962;28;20133;-77
2021/12/05 16:57:16;;;;;;;19.60;15.23;;;;;;;;;;4955364;28;20105;-77
2021/12/05 16:59:47;;;;;;;21.85;17.50;;;;;;;;;;4956074;28;20435;-76
2021/12/05 17:02:22;;;;;;;16.67;14.40;;;;;;;;;;4955254;28;20043;-78
2021/12/05 17:05:02;;;;;;;20.80;16.27;;;;;;;;;;4974309;28;20078;-76
2021/12/05 17:07:47;;;;;;;19.73;15.23;;;;;;;;;;4961517;28;20047;-77
2021/12/05 17:10:20;;;;;;;19.10;16.00;;;;;;;;;;4960956;28;20406;-77
2021/12/05 17:12:52;;;;;;;20.42;16.00;;;;;;;;;;4958809;28;20046;-76
2021/12/05 17:15:26;;;;;;;22.27;15.53;;;;;;;;;;4961969;28;20130;-77
2021/12/05 17:18:03;;;;;;;20.52;16.90;;;;;;;;;;4962352;28;20070;-76
2021/12/05 17:20:51;;;;;;;35.22;23.48;;;;;;;;;;4959238;28;20042;-77
2021/12/05 17:23:21;;;;;;;27.00;20.45;;;;;;;;;;4960590;28;20070;-77
2021/12/05 17:25:50;;;;;;;28.10;20.92;;;;;;;;;;4960104;28;20047;-77
2021/12/05 17:28:35;;;;;;;29.42;20.98;;;;;;;;;;4959377;28;20130;-77
2021/12/05 17:31:05;;;;;;;23.98;18.63;;;;;;;;;;4943289;28;20075;-77
2021/12/05 17:33:36;;;;;;;26.02;18.45;;;;;;;;;;4961675;28;20142;-77
2021/12/05 17:36:13;;;;;;;20.73;16.00;;;;;;;;;;4961236;28;20058;-77
2021/12/05 17:38:40;;;;;;;21.98;17.77;;;;;;;;;;4958383;28;20280;-76
2021/12/05 17:41:08;;;;;;;23.48;18.05;;;;;;;;;;4961840;28;20074;-76
2021/12/05 17:43:36;;;;;;;20.90;14.90;;;;;;;;;;4976433;28;20041;-76
2021/12/05 17:46:03;;;;;;;26.05;18.95;;;;;;;;;;4959922;28;20047;-77
2021/12/05 17:48:31;;;;;;;22.33;17.13;;;;;;;;;;4959029;28;20041;-76
2021/12/05 17:51:03;;;;;;;18.17;16.17;;;;;;;;;;4959847;28;20078;-76
2021/12/05 17:53:32;;;;;;;26.30;22.25;;;;;;;;;;4974017;28;20506;-76
2021/12/05 17:56:06;;;;;;;20.85;18.55;;;;;;;;;;4959948;28;20636;-77
2021/12/05 17:59:05;;;;;;;23.98;20.17;;;;;;;;;;4961269;28;20054;-76
2021/12/05 18:04:08;;;;;;;24.73;19.30;;;;;;;;;;4962985;28;20121;-77
2021/12/05 18:06:35;;;;;;;29.05;23.42;;;;;;;;;;4963649;28;20050;-77
2021/12/05 18:09:04;;;;;;;28.08;22.90;;;;;;;;;;4961554;28;20054;-76
2021/12/05 18:11:34;;;;;;;27.52;23.05;;;;;;;;;;4948284;28;20110;-77
2021/12/05 18:14:02;;;;;;;22.95;18.45;;;;;;;;;;4967299;28;20055;-77
2021/12/05 18:16:31;;;;;;;25.77;20.55;;;;;;;;;;4967586;28;20071;-76
2021/12/05 18:19:03;;;;;;;23.30;19.50;;;;;;;;;;4964992;28;20039;-77
2021/12/05 18:21:31;;;;;;;28.80;21.67;;;;;;;;;;4965487;28;20086;-77
2021/12/05 18:23:59;;;;;;;24.58;18.95;;;;;;;;;;4978646;28;20046;-77
2021/12/05 18:26:27;;;;;;;25.00;17.58;;;;;;;;;;4967647;28;20039;-76
2021/12/05 18:28:55;;;;;;;23.13;17.45;;;;;;;;;;4967474;28;20063;-76
2021/12/05 18:31:25;;;;;;;26.35;20.08;;;;;;;;;;4961695;28;20094;-76
2021/12/05 18:33:56;;;;;;;25.73;18.30;;;;;;;;;;4948139;28;20138;-76
2021/12/05 18:36:24;;;;;;;22.92;16.75;;;;;;;;;;4934741;28;20047;-76
2021/12/05 18:38:52;;;;;;;21.70;17.23;;;;;;;;;;4950787;28;20053;-76
2021/12/05 18:41:20;;;;;;;20.33;15.85;;;;;;;;;;4969655;28;20391;-76
2021/12/05 18:43:48;;;;;;;29.80;20.17;;;;;;;;;;4974099;28;20419;-77
2021/12/05 18:46:16;;;;;;;25.13;17.42;;;;;;;;;;4956273;28;20046;-76
2021/12/05 18:48:46;;;;;;;27.92;20.38;;;;;;;;;;4969127;28;20063;-76
2021/12/05 18:51:15;;;;;;;30.30;20.17;;;;;;;;;;4968548;28;20062;-77
2021/12/05 18:53:43;;;;;;;31.05;18.90;;;;;;;;;;4968519;28;20039;-77
2021/12/05 18:56:11;;;;;;;22.67;15.52;;;;;;;;;;4966027;28;20042;-75
2021/12/05 18:58:42;;;;;;;22.58;14.50;;;;;;;;;;4966085;28;20101;-76
2021/12/05 19:04:24;;;;;;;30.45;18.33;;;;;;;;;;4965880;28;20046;-76
2021/12/05 19:06:58;;;;;;;26.08;15.52;;;;;;;;;;4969637;28;20070;-76
2021/12/05 19:12:20;;;;;;;23.33;15.32;;;;;;;;;;4965989;28;20042;-76
2021/12/05 19:14:49;;;;;;;21.98;13.95;;;;;;;;;;4965359;28;20542;-76
2021/12/05 19:17:43;;;;;;;23.63;15.93;;;;;;;;;;4966182;28;20038;-76
2021/12/05 19:20:13;;;;;;;21.67;15.20;;;;;;;;;;4971097;28;20043;-78
2021/12/05 19:22:42;;;;;;;19.38;14.15;;;;;;;;;;4941152;28;20058;-77
2021/12/05 19:25:22;;;;;;;27.65;16.15;;;;;;;;;;4980156;28;20565;-77
2021/12/05 19:27:50;;;;;;;21.67;15.02;;;;;;;;;;4974889;28;20125;-77
2021/12/05 19:30:19;;;;;;;26.25;17.48;;;;;;;;;;4967822;28;20130;-77
2021/12/05 19:32:47;;;;;;;22.23;15.70;;;;;;;;;;4958027;28;20067;-77
2021/12/05 19:35:14;;;;;;;23.58;14.23;;;;;;;;;;4962110;28;20047;-77
2021/12/05 19:37:43;;;;;;;28.40;18.60;;;;;;;;;;4958821;28;20563;-77
2021/12/05 19:40:12;;;;;;;25.17;18.50;;;;;;;;;;4974764;28;20509;-77
2021/12/05 19:42:40;;;;;;;24.92;17.15;;;;;;;;;;4979188;28;20681;-77
2021/12/05 19:45:09;;;;;;;30.23;18.98;;;;;;;;;;4960754;28;20065;-77
2021/12/05 19:47:38;;;;;;;28.00;19.80;;;;;;;;;;4968147;28;20099;-77
2021/12/05 19:50:09;;;;;;;23.48;16.52;;;;;;;;;;4948069;28;20298;-77
2021/12/05 19:52:37;;;;;;;27.08;17.30;;;;;;;;;;4960339;28;20094;-77
2021/12/05 19:55:05;;;;;;;24.27;16.15;;;;;;;;;;4959886;28;20039;-77
2021/12/05 19:57:35;;;;;;;25.48;16.50;;;;;;;;;;4958890;28;20427;-77
2021/12/05 20:00:08;;;;;;;31.50;18.35;;;;;;;;;;4957554;28;20073;-78
2021/12/05 20:02:39;;;;;;;39.40;21.17;;;;;;;;;;4958052;28;20125;-77
2021/12/05 20:05:08;;;;;;;39.92;21.27;;;;;;;;;;4962258;28;20589;-77
2021/12/05 20:07:37;;;;;;;31.67;18.88;;;;;;;;;;4936468;29;20259;-77
2021/12/05 20:10:07;;;;;;;25.63;16.63;;;;;;;;;;4943389;29;20043;-76
2021/12/05 20:12:34;;;;;;;33.50;19.67;;;;;;;;;;4945850;28;20515;-75
2021/12/05 20:15:03;;;;;;;33.35;19.27;;;;;;;;;;4930895;28;20106;-75
2021/12/05 20:17:32;;;;;;;23.77;17.00;;;;;;;;;;4944780;28;20055;-79
2021/12/05 20:20:03;;;;;;;28.45;18.80;;;;;;;;;;4944509;29;20669;-75
2021/12/05 20:22:32;;;;;;;;;;;;;;;;;;4912280;29;20055;-77
2021/12/05 20:25:00;;;;;;;25.00;16.63;;;;;;;;;;4926009;29;19923;-79
2021/12/05 20:27:28;;;;;;;20.17;15.38;;;;;;;;;;4928810;29;20132;-76
2021/12/05 20:29:55;;;;;;;21.15;16.10;;;;;;;;;;4929921;29;20609;-75
2021/12/05 20:32:23;;;;;;;20.83;16.73;;;;;;;;;;4929867;28;20102;-77
2021/12/05 20:34:51;;;;;;;21.15;15.00;;;;;;;;;;4940510;28;20054;-79
2021/12/05 20:37:18;;;;;;;18.77;14.32;;;;;;;;;;4929722;28;20090;-77
2021/12/05 20:39:46;;;;;;;21.83;15.27;;;;;;;;;;4972628;28;20453;-78
2021/12/05 20:42:13;;;;;;;18.30;15.02;;;;;;;;;;4961236;28;20250;-75
2021/12/05 20:44:40;;;;;;;21.10;16.13;;;;;;;;;;4976609;28;20074;-75
2021/12/05 20:47:10;;;;;;;24.92;20.55;;;;;;;;;;4959002;28;20054;-79
2021/12/05 20:49:37;;;;;;;21.80;17.73;;;;;;;;;;4965623;28;20046;-74
2021/12/05 20:52:05;;;;;;;22.50;16.88;;;;;;;;;;4968283;28;20744;-75
2021/12/05 20:54:35;;;;;;;26.48;17.83;;;;;;;;;;4967244;28;20090;-78
2021/12/05 20:57:04;;;;;;;25.42;18.05;;;;;;;;;;4953894;28;20054;-79
2021/12/05 20:59:32;;;;;;;25.27;17.75;;;;;;;;;;4976130;28;20068;-74
2021/12/05 21:01:59;;;;;;;23.73;16.85;;;;;;;;;;4951101;28;20047;-77
2021/12/05 21:04:27;;;;;;;43.00;31.35;;;;;;;;;;4963862;28;20555;-76
2021/12/05 21:06:55;;;;;;;39.10;28.20;;;;;;;;;;4950854;28;20133;-78
2021/12/05 21:09:22;;;;;;;30.95;22.10;;;;;;;;;;4967556;28;20194;-75
2021/12/05 21:11:54;;;;;;;27.45;20.08;;;;;;;;;;4963865;28;20042;-77
2021/12/05 21:14:22;;;;;;;23.15;18.30;;;;;;;;;;4943374;28;20134;-74
2021/12/05 21:16:50;;;;;;;25.38;18.20;;;;;;;;;;4948719;28;20047;-75
2021/12/05 21:19:18;;;;;;;22.30;17.17;;;;;;;;;;4948993;28;20534;-76
2021/12/05 21:21:46;;;;;;;25.05;18.38;;;;;;;;;;4961970;28;20097;-76
2021/12/05 21:24:13;;;;;;;21.45;16.50;;;;;;;;;;4950098;28;20431;-75
2021/12/05 21:26:41;;;;;;;19.73;16.60;;;;;;;;;;4959246;28;20043;-75
2021/12/05 21:29:09;;;;;;;22.77;17.17;;;;;;;;;;4962997;28;20121;-75
2021/12/05 21:31:37;;;;;;;15.18;13.20;;;;;;;;;;4963091;28;20499;-78
2021/12/05 21:34:04;;;;;;;12.95;10.15;;;;;;;;;;4963503;28;20404;-79
2021/12/05 21:36:31;;;;;;;11.60;10.40;;;;;;;;;;4960598;28;20058;-75
2021/12/05 21:38:59;;;;;;;10.02;9.02;;;;;;;;;;4961245;28;20130;-80
2021/12/05 21:41:28;;;;;;;12.50;11.27;;;;;;;;;;4963386;28;20175;-77
2021/12/05 21:44:03;;;;;;;10.95;9.80;;;;;;;;;;4960343;28;20082;-79
2021/12/05 21:46:31;;;;;;;11.80;10.55;;;;;;;;;;5004116;28;20497;-75
2021/12/05 21:48:59;;;;;;;12.55;11.25;;;;;;;;;;4979333;28;20526;-76
2021/12/05 21:51:28;;;;;;;12.20;10.15;;;;;;;;;;4978190;28;20065;-76
2021/12/05 21:53:56;;;;;;;16.92;12.02;;;;;;;;;;4981205;28;20057;-76
2021/12/05 21:56:24;;;;;;;11.00;9.82;;;;;;;;;;4996692;28;20069;-73
2021/12/05 21:58:52;;;;;;;11.98;10.77;;;;;;;;;;4981834;28;20038;-73
2021/12/05 22:01:20;;;;;;;13.85;11.52;;;;;;;;;;4979476;28;20109;-73
2021/12/05 22:03:52;;;;;;;11.23;10.13;;;;;;;;;;4980917;28;20213;-75
2021/12/05 22:06:25;;;;;;;10.70;9.60;;;;;;;;;;4997000;28;20054;-74
2021/12/05 22:08:52;;;;;;;11.68;10.48;;;;;;;;;;4980660;28;20526;-75
2021/12/05 22:11:20;;;;;;;10.93;9.82;;;;;;;;;;4983093;28;20104;-75
2021/12/05 22:13:47;;;;;;;12.32;10.60;;;;;;;;;;4982441;28;20125;-74
2021/12/05 22:16:15;;;;;;;12.77;10.63;;;;;;;;;;4984316;28;20450;-75
2021/12/05 22:18:47;;;;;;;13.75;11.82;;;;;;;;;;4981885;28;20091;-75
2021/12/05 22:21:18;;;;;;;14.35;12.70;;;;;;;;;;4991128;28;20047;-74
2021/12/05 22:23:51;;;;;;;14.32;12.77;;;;;;;;;;4979410;28;21037;-75
2021/12/05 22:26:19;;;;;;;14.07;10.15;;;;;;;;;;4981496;28;20066;-74
2021/12/05 22:28:46;;;;;;;12.13;10.93;;;;;;;;;;4980420;28;20145;-74
2021/12/05 22:31:14;;;;;;;15.95;13.07;;;;;;;;;;4980887;28;20041;-74
2021/12/05 22:33:41;;;;;;;14.63;12.55;;;;;;;;;;4982465;28;20129;-75
2021/12/05 22:36:09;;;;;;;13.80;11.77;;;;;;;;;;4982741;28;20133;-75
2021/12/05 22:38:40;;;;;;;20.40;16.35;;;;;;;;;;4983026;28;20042;-74
2021/12/05 22:41:12;;;;;;;15.93;13.45;;;;;;;;;;4982505;28;20565;-75
2021/12/05 22:43:40;;;;;;;15.18;12.73;;;;;;;;;;4983447;28;20038;-75
2021/12/05 22:46:08;;;;;;;15.95;13.45;;;;;;;;;;4985016;28;20035;-75
2021/12/05 22:48:36;;;;;;;21.45;16.70;;;;;;;;;;4982518;28;20454;-75
2021/12/05 22:51:08;;;;;;;;;;;;;;;;;;4985923;28;20058;-75
2021/12/05 22:53:35;;;;;;;19.90;13.68;;;;;;;;;;4983596;28;20396;-74
2021/12/05 22:56:03;;;;;;;25.15;18.65;;;;;;;;;;4998157;28;20502;-74
2021/12/05 22:58:30;;;;;;;19.30;16.13;;;;;;;;;;5002650;28;20077;-74
2021/12/05 23:01:00;;;;;;;20.42;15.23;;;;;;;;;;4982896;28;20039;-75
2021/12/05 23:03:33;;;;;;;17.67;14.52;;;;;;;;;;5002285;28;20042;-74
2021/12/05 23:06:01;;;;;;;26.95;19.77;;;;;;;;;;4991609;28;20022;-74
2021/12/05 23:08:29;;;;;;;22.08;16.73;;;;;;;;;;4998922;28;20035;-74
2021/12/05 23:10:57;;;;;;;17.58;14.43;;;;;;;;;;5000252;28;20121;-74
2021/12/05 23:13:25;;;;;;;19.08;15.20;;;;;;;;;;5002952;28;20054;-74
2021/12/05 23:15:54;;;;;;;18.65;13.82;;;;;;;;;;4983779;28;20430;-74
2021/12/05 23:18:22;;;;;;;18.45;14.30;;;;;;;;;;4985838;28;20078;-74
2021/12/05 23:20:50;;;;;;;15.93;12.45;;;;;;;;;;4984589;28;20059;-74
2021/12/05 23:23:18;;;;;;;29.80;19.65;;;;;;;;;;5002674;28;20109;-74
2021/12/05 23:25:46;;;;;;;22.77;17.08;;;;;;;;;;5001183;28;20570;-74
2021/12/05 23:28:13;;;;;;;17.33;13.70;;;;;;;;;;4981617;28;20121;-74
2021/12/05 23:30:41;;;;;;;18.58;13.85;;;;;;;;;;4983452;28;20133;-74
2021/12/05 23:33:10;;;;;;;17.98;14.00;;;;;;;;;;4999580;28;20073;-74
2021/12/05 23:35:39;;;;;;;19.25;14.18;;;;;;;;;;4985901;28;20081;-74
2021/12/05 23:38:08;;;;;;;18.00;13.13;;;;;;;;;;4983654;28;20097;-74
2021/12/05 23:40:36;;;;;;;22.63;14.95;;;;;;;;;;4983930;28;20088;-74
2021/12/05 23:43:03;;;;;;;19.23;14.77;;;;;;;;;;4983259;28;20464;-75
2021/12/05 23:45:31;;;;;;;17.48;13.98;;;;;;;;;;4981123;28;20053;-74
2021/12/05 23:47:59;;;;;;;15.43;12.80;;;;;;;;;;4982569;28;20053;-74
2021/12/05 23:50:30;;;;;;;16.88;14.25;;;;;;;;;;4997068;28;20050;-74